Time;durP1;ratioP1;P1;durP2;ratioP2;P2;SDS_P1;SDS_P2;PMS_P1;PMS_P2;Temp;Humidity;BMP_temperature;BMP_pressure;BME280_temperature;BME280_humidity;BME280_pressure;Samples;Min_cycle;Max_cycle;Signal;HPM_P1;HPM_P2
2023/06/29 00:00:39;;;;;;;16.30;8.88;;;;;;;-142.75;100.00;75987.66;5065539;28;20556;-64
2023/06/29 00:03:05;;;;;;;18.92;9.60;;;;;;;-142.75;100.00;75993.56;5050975;28;20392;-65
2023/06/29 00:05:30;;;;;;;20.73;9.50;;;;;;;-142.75;100.00;76005.38;5065161;28;20588;-65
2023/06/29 00:07:58;;;;;;;18.05;9.18;;;;;;;-142.75;100.00;75985.69;5064665;28;20028;-65
2023/06/29 00:10:25;;;;;;;17.48;9.57;;;;;;;-142.75;100.00;75979.78;5060533;28;20016;-64
2023/06/29 00:12:51;;;;;;;15.27;9.65;;;;;;;-142.75;100.00;75979.78;5060420;28;20055;-65
2023/06/29 00:15:16;;;;;;;18.25;9.98;;;;;;;-142.75;100.00;75979.78;5058770;28;20500;-65
2023/06/29 00:17:47;;;;;;;20.48;8.68;;;;;;;-142.75;100.00;75964.03;5057497;28;20029;-65
2023/06/29 00:20:13;;;;;;;18.45;8.75;;;;;;;-142.75;100.00;75960.13;5044156;28;21585;-65
2023/06/29 00:22:40;;;;;;;18.58;9.65;;;;;;;-142.75;100.00;75952.25;5056643;28;20082;-64
2023/06/29 00:25:09;;;;;;;19.73;9.82;;;;;;;-142.75;100.00;75960.13;5045247;28;20112;-65
2023/06/29 00:27:35;;;;;;;18.40;9.88;;;;;;;-142.75;100.00;75971.91;5059157;28;20039;-65
2023/06/29 00:30:00;;;;;;;20.05;10.18;;;;;;;-142.75;100.00;75971.91;5056964;28;20032;-65
2023/06/29 00:32:25;;;;;;;19.38;9.70;;;;;;;-142.75;100.00;75971.91;5050832;28;20328;-65
2023/06/29 00:34:51;;;;;;;18.33;9.20;;;;;;;-142.75;100.00;75960.13;5044631;28;20031;-64
2023/06/29 00:37:16;;;;;;;14.45;8.70;;;;;;;-142.75;100.00;75962.09;5049478;28;20028;-64
2023/06/29 00:39:41;;;;;;;15.45;8.55;;;;;;;-142.75;100.00;75956.19;5063872;28;20024;-64
2023/06/29 00:42:07;;;;;;;18.55;8.90;;;;;;;-142.75;100.00;75944.38;5064169;28;20070;-65
2023/06/29 00:44:32;;;;;;;16.17;8.45;;;;;;;-142.75;100.00;75938.47;5064534;28;20119;-65
2023/06/29 00:46:59;;;;;;;17.20;8.60;;;;;;;-142.75;100.00;75940.44;5043446;28;21658;-65
2023/06/29 00:49:24;;;;;;;19.90;9.57;;;;;;;-142.75;100.00;75932.56;5063842;28;20044;-65
2023/06/29 00:51:52;;;;;;;16.58;9.35;;;;;;;-142.75;100.00;75918.78;5047805;28;20052;-65
2023/06/29 00:54:18;;;;;;;19.55;8.95;;;;;;;-142.75;100.00;75924.69;5056763;28;20107;-65
2023/06/29 00:56:45;;;;;;;19.27;10.23;;;;;;;-142.75;100.00;75940.44;5051142;28;20115;-65
2023/06/29 00:59:10;;;;;;;19.67;9.52;;;;;;;-142.75;100.00;75948.31;5064329;28;20025;-64
2023/06/29 01:01:38;;;;;;;16.15;9.27;;;;;;;-142.75;100.00;75928.63;5052242;28;20028;-65
2023/06/29 01:04:04;;;;;;;18.83;9.88;;;;;;;-142.75;100.00;75938.47;5044096;28;20036;-65
2023/06/29 01:06:33;;;;;;;19.30;10.25;;;;;;;-142.75;100.00;75932.56;5047729;28;20078;-66
2023/06/29 01:09:05;;;;;;;19.75;10.38;;;;;;;-142.75;100.00;75928.63;5062614;28;20028;-65
2023/06/29 01:11:36;;;;;;;18.73;10.20;;;;;;;-142.75;100.00;75928.63;5044231;28;20552;-64
2023/06/29 01:14:05;;;;;;;19.77;10.60;;;;;;;-142.75;100.00;75940.44;5043916;28;20029;-64
2023/06/29 01:16:32;;;;;;;21.38;9.95;;;;;;;-142.75;100.00;75952.25;5057660;28;20024;-64
2023/06/29 01:19:00;;;;;;;20.45;9.75;;;;;;;-142.75;100.00;75948.31;5053682;28;20025;-65
2023/06/29 01:21:27;;;;;;;23.73;10.80;;;;;;;-142.75;100.00;75954.22;5051062;28;20025;-64
2023/06/29 01:23:55;;;;;;;18.80;10.55;;;;;;;-142.75;100.00;75940.44;5045451;28;20186;-65
2023/06/29 01:26:22;;;;;;;21.15;10.32;;;;;;;-142.75;100.00;75960.13;5050990;28;20032;-64
2023/06/29 01:28:51;;;;;;;21.08;10.98;;;;;;;-142.75;100.00;75954.22;5062540;28;20048;-64
2023/06/29 01:31:17;;;;;;;17.70;9.43;;;;;;;-142.75;100.00;75946.34;5044604;28;20031;-65
2023/06/29 01:33:44;;;;;;;18.52;10.73;;;;;;;-142.75;100.00;75942.41;5049045;28;20025;-64
2023/06/29 01:36:30;;;;;;;20.85;11.05;;;;;;;-142.75;100.00;75944.38;5043557;28;20504;-66
2023/06/29 01:39:10;;;;;;;20.63;9.88;;;;;;;-142.75;100.00;75926.66;5050709;28;20483;-64
2023/06/29 01:41:40;;;;;;;22.35;11.00;;;;;;;-142.75;100.00;75928.63;5043305;28;20506;-65
2023/06/29 01:44:08;;;;;;;19.95;10.73;;;;;;;-142.75;100.00;75930.59;5052832;28;20028;-65
2023/06/29 01:46:34;;;;;;;24.35;10.82;;;;;;;-142.75;100.00;75924.69;5054125;28;20020;-65
2023/06/29 01:49:01;;;;;;;19.85;10.20;;;;;;;-142.75;100.00;75932.56;5046806;28;20146;-65
2023/06/29 01:51:26;;;;;;;19.88;9.65;;;;;;;-142.75;100.00;75940.44;5049832;28;20115;-65
2023/06/29 01:53:53;;;;;;;21.48;10.80;;;;;;;-142.75;100.00;75942.41;5060446;28;20131;-64
2023/06/29 01:56:19;;;;;;;21.33;11.52;;;;;;;-142.75;100.00;75920.75;5060559;28;20024;-64
2023/06/29 01:58:44;;;;;;;18.58;10.32;;;;;;;-142.75;100.00;75918.78;5048817;28;20073;-64
2023/06/29 02:01:09;;;;;;;20.23;10.57;;;;;;;-142.75;100.00;75912.88;5057944;28;20056;-65
2023/06/29 02:03:35;;;;;;;21.88;11.02;;;;;;;-142.75;100.00;75903.03;5057130;28;20021;-64
2023/06/29 02:06:00;;;;;;;21.08;10.82;;;;;;;-142.75;100.00;75905.00;5062511;28;20020;-64
2023/06/29 02:08:25;;;;;;;18.90;10.57;;;;;;;-142.75;100.00;75903.03;5056158;28;20021;-64
2023/06/29 02:10:51;;;;;;;24.50;10.88;;;;;;;-142.75;100.00;75903.03;5051706;28;20020;-64
2023/06/29 02:13:16;;;;;;;23.15;11.00;;;;;;;-142.75;100.00;75893.19;5048069;28;20672;-64
2023/06/29 02:15:41;;;;;;;22.63;11.63;;;;;;;-142.75;100.00;75895.16;5050173;28;20032;-64
2023/06/29 02:18:06;;;;;;;26.95;12.63;;;;;;;-142.75;100.00;75906.97;5051405;28;20020;-64
2023/06/29 02:20:32;;;;;;;25.90;12.50;;;;;;;-142.75;100.00;75912.88;5059550;28;20633;-64
2023/06/29 02:22:57;;;;;;;23.70;12.25;;;;;;;-142.75;100.00;75897.13;5045061;28;20651;-64
2023/06/29 02:25:23;;;;;;;27.05;12.77;;;;;;;-142.75;100.00;75910.91;5045355;28;20029;-65
2023/06/29 02:27:48;;;;;;;26.23;13.35;;;;;;;-142.75;100.00;75910.91;5058217;28;20017;-65
2023/06/29 02:30:14;;;;;;;25.73;12.38;;;;;;;-142.75;100.00;75906.97;5042922;28;20028;-65
2023/06/29 02:32:39;;;;;;;22.73;12.32;;;;;;;-142.75;100.00;75908.94;5045982;28;20048;-64
2023/06/29 02:35:05;;;;;;;25.75;12.05;;;;;;;-142.75;100.00;75905.00;5059839;28;20032;-64
2023/06/29 02:37:31;;;;;;;29.33;13.65;;;;;;;-142.75;100.00;75912.88;5046682;28;20024;-64
2023/06/29 02:39:56;;;;;;;25.30;12.88;;;;;;;-142.75;100.00;75905.00;5042136;28;20508;-64
2023/06/29 02:42:22;;;;;;;28.95;13.20;;;;;;;-142.75;100.00;75903.03;5057023;28;20174;-65
2023/06/29 02:44:47;;;;;;;27.88;13.60;;;;;;;-142.75;100.00;75895.16;5047452;28;20108;-65
2023/06/29 02:47:15;;;;;;;31.30;13.63;;;;;;;-142.75;100.00;75901.06;5046589;28;20044;-64
2023/06/29 02:49:40;;;;;;;28.02;13.48;;;;;;;-142.75;100.00;75914.84;5057502;28;20089;-64
2023/06/29 02:52:06;;;;;;;29.27;13.95;;;;;;;-142.75;100.00;75908.94;5049301;28;20021;-64
2023/06/29 02:54:31;;;;;;;25.65;13.10;;;;;;;-142.75;100.00;75908.94;5058184;28;20037;-65
2023/06/29 02:56:56;;;;;;;28.85;14.23;;;;;;;-142.75;100.00;75905.00;5045075;28;20017;-64
2023/06/29 02:59:22;;;;;;;27.33;14.25;;;;;;;-142.75;100.00;75912.88;5045120;28;20013;-64
2023/06/29 03:01:47;;;;;;;29.15;13.82;;;;;;;-142.75;100.00;75905.00;5045479;28;20032;-64
2023/06/29 03:04:13;;;;;;;28.23;14.77;;;;;;;-142.75;100.00;75899.09;5044611;28;20025;-65
2023/06/29 03:06:38;;;;;;;28.45;14.35;;;;;;;-142.75;100.00;75897.13;5046664;28;20037;-65
2023/06/29 03:09:04;;;;;;;32.30;14.82;;;;;;;-142.75;100.00;75891.22;5059386;28;20024;-64
2023/06/29 03:11:29;;;;;;;27.90;14.52;;;;;;;-142.75;100.00;75889.25;5057748;28;20116;-65
2023/06/29 03:13:57;;;;;;;29.92;13.38;;;;;;;-142.75;100.00;75889.25;5048792;28;20375;-64
2023/06/29 03:16:22;;;;;;;27.95;14.18;;;;;;;-142.75;100.00;75891.22;5042178;28;20492;-65
2023/06/29 03:18:47;;;;;;;30.05;14.30;;;;;;;-142.75;100.00;75889.25;5054201;28;20029;-64
2023/06/29 03:21:16;;;;;;;24.48;13.43;;;;;;;-142.75;100.00;75885.31;5061306;28;20571;-64
2023/06/29 03:23:41;;;;;;;27.63;14.32;;;;;;;-142.75;100.00;75895.16;5051950;28;20021;-64
2023/06/29 03:26:07;;;;;;;26.80;14.60;;;;;;;-142.75;100.00;75893.19;5047657;28;20476;-65
2023/06/29 03:28:32;;;;;;;28.80;14.18;;;;;;;-142.75;100.00;75895.16;5047045;28;20029;-65
2023/06/29 03:30:57;;;;;;;27.02;13.25;;;;;;;-142.75;100.00;75885.31;5054959;28;22198;-64
2023/06/29 03:33:23;;;;;;;33.83;14.45;;;;;;;-142.75;100.00;75889.25;5060976;28;20060;-64
2023/06/29 03:35:48;;;;;;;31.65;14.02;;;;;;;-142.75;100.00;75897.13;5057960;28;20029;-64
2023/06/29 03:38:13;;;;;;;28.88;14.05;;;;;;;-142.75;100.00;75895.16;5055038;28;20033;-65
2023/06/29 03:40:39;;;;;;;28.15;14.43;;;;;;;-142.75;100.00;75885.31;5060768;28;20063;-65
2023/06/29 03:43:05;;;;;;;26.00;13.82;;;;;;;-142.75;100.00;75881.38;5048714;28;20039;-64
2023/06/29 03:45:31;;;;;;;31.85;14.57;;;;;;;-142.75;100.00;75885.31;5041038;28;20100;-64
2023/06/29 03:47:56;;;;;;;25.30;14.00;;;;;;;-142.75;100.00;75881.38;5040862;28;20112;-64
2023/06/29 03:50:22;;;;;;;29.17;13.80;;;;;;;-142.75;100.00;75877.44;5058529;28;20031;-64
2023/06/29 03:52:47;;;;;;;25.65;12.48;;;;;;;-142.75;100.00;75865.63;5047315;28;20062;-65
2023/06/29 03:55:13;;;;;;;28.55;13.00;;;;;;;-142.75;100.00;75871.53;5046997;28;20025;-65
2023/06/29 03:57:38;;;;;;;28.40;13.00;;;;;;;-142.75;100.00;75885.31;5042651;28;20090;-64
2023/06/29 04:00:04;;;;;;;22.50;11.93;;;;;;;-142.75;100.00;75905.00;5058689;28;20089;-64
2023/06/29 04:02:29;;;;;;;24.98;12.63;;;;;;;-142.75;100.00;75895.16;5048403;28;20021;-66
2023/06/29 04:04:54;;;;;;;21.60;12.00;;;;;;;-142.75;100.00;75889.25;5062586;28;20025;-65
2023/06/29 04:07:20;;;;;;;24.45;12.20;;;;;;;-142.75;100.00;75905.00;5063371;28;20028;-64
2023/06/29 04:09:45;;;;;;;27.83;11.88;;;;;;;-142.75;100.00;75897.13;5047410;28;20031;-64
2023/06/29 04:12:10;;;;;;;21.17;10.82;;;;;;;-142.75;100.00;75893.19;5060419;28;20035;-64
2023/06/29 04:14:36;;;;;;;20.77;11.38;;;;;;;-142.75;100.00;75905.00;5050897;28;20024;-65
2023/06/29 04:17:01;;;;;;;21.00;11.10;;;;;;;-142.75;100.00;75903.03;5050281;28;20013;-64
2023/06/29 04:19:26;;;;;;;22.38;12.02;;;;;;;-142.75;100.00;75897.13;5050055;28;20017;-64
2023/06/29 04:21:52;;;;;;;22.33;11.55;;;;;;;-142.75;100.00;75901.06;5044586;28;20052;-65
2023/06/29 04:24:17;;;;;;;23.10;11.40;;;;;;;-142.75;100.00;75893.19;5051081;28;21490;-64
2023/06/29 04:26:42;;;;;;;24.30;11.70;;;;;;;-142.75;100.00;75889.25;5053844;28;20047;-65
2023/06/29 04:29:09;;;;;;;22.92;12.68;;;;;;;-142.75;100.00;75889.25;5056746;28;20033;-64
2023/06/29 04:31:34;;;;;;;26.65;12.50;;;;;;;-142.75;100.00;75905.00;5049196;28;20078;-65
2023/06/29 04:34:02;;;;;;;22.58;11.60;;;;;;;-142.75;100.00;75889.25;5045711;28;20029;-65
2023/06/29 04:36:28;;;;;;;22.17;11.57;;;;;;;-142.75;100.00;75887.28;5056146;28;20046;-65
2023/06/29 04:38:53;;;;;;;25.48;12.05;;;;;;;-142.75;100.00;75899.09;5054666;28;20431;-64
2023/06/29 04:41:18;;;;;;;25.17;12.23;;;;;;;-142.75;100.00;75899.09;5045289;28;20504;-64
2023/06/29 04:43:51;;;;;;;23.98;13.20;;;;;;;-142.75;100.00;75891.22;5049438;28;20040;-64
2023/06/29 04:46:17;;;;;;;25.25;12.55;;;;;;;-142.75;100.00;75916.81;5060790;28;20032;-64
2023/06/29 04:48:46;;;;;;;24.20;11.95;;;;;;;-142.75;100.00;75905.00;5054148;28;20091;-64
2023/06/29 04:51:12;;;;;;;22.42;11.80;;;;;;;-142.75;100.00;75912.88;5045312;28;20365;-65
2023/06/29 04:53:38;;;;;;;21.75;11.70;;;;;;;-142.75;100.00;75924.69;5053894;28;20021;-65
2023/06/29 04:56:04;;;;;;;21.35;11.73;;;;;;;-142.75;100.00;75918.78;5056034;28;20039;-64
2023/06/29 04:58:29;;;;;;;23.63;12.52;;;;;;;-142.75;100.00;75920.75;5049077;28;20031;-64
2023/06/29 05:00:55;;;;;;;27.08;13.48;;;;;;;-142.75;100.00;75940.44;5058439;28;20033;-64
2023/06/29 05:03:21;;;;;;;23.38;12.40;;;;;;;-142.75;100.00;75936.50;5062551;28;20048;-64
2023/06/29 05:05:46;;;;;;;23.20;12.43;;;;;;;-142.75;100.00;75932.56;5062725;28;20033;-64
2023/06/29 05:08:12;;;;;;;24.52;12.07;;;;;;;-142.75;100.00;75926.66;5052570;28;20031;-64
2023/06/29 05:10:37;;;;;;;26.52;13.20;;;;;;;-142.75;100.00;75920.75;5046187;28;20082;-64
2023/06/29 05:13:03;;;;;;;23.23;11.57;;;;;;;-142.75;100.00;75928.63;5055203;28;21306;-65
2023/06/29 05:15:28;;;;;;;25.77;13.10;;;;;;;-142.75;100.00;75918.78;5065288;28;20073;-65
2023/06/29 05:17:54;;;;;;;26.92;13.52;;;;;;;-142.75;100.00;75926.66;5061035;28;20025;-64
2023/06/29 05:20:19;;;;;;;22.27;11.82;;;;;;;-142.75;100.00;75920.75;5049000;28;20082;-64
2023/06/29 05:22:45;;;;;;;23.95;12.32;;;;;;;-142.75;100.00;75910.91;5061355;28;20484;-64
2023/06/29 05:25:11;;;;;;;23.52;12.63;;;;;;;-142.75;100.00;75912.88;5057403;28;20024;-65
2023/06/29 05:27:36;;;;;;;25.98;13.10;;;;;;;-142.75;100.00;75918.78;5060099;28;20386;-64
2023/06/29 05:30:02;;;;;;;27.50;13.20;;;;;;;-142.75;100.00;75912.88;5060097;28;20032;-64
2023/06/29 05:32:28;;;;;;;25.05;14.10;;;;;;;-142.75;100.00;75912.88;5046828;28;20035;-64
2023/06/29 05:34:53;;;;;;;26.75;13.95;;;;;;;-142.75;100.00;75912.88;5045099;28;20116;-65
2023/06/29 05:37:20;;;;;;;26.85;13.85;;;;;;;-142.75;100.00;75912.88;5053889;28;20021;-64
2023/06/29 05:39:46;;;;;;;27.52;14.82;;;;;;;-142.75;100.00;75914.84;5053086;28;20027;-64
2023/06/29 05:42:14;;;;;;;28.10;13.18;;;;;;;-142.75;100.00;75914.84;5066361;28;20020;-66
2023/06/29 05:44:40;;;;;;;29.08;14.60;;;;;;;-142.75;100.00;75906.97;5066399;28;20028;-64
2023/06/29 05:47:05;;;;;;;25.90;13.15;;;;;;;-142.75;100.00;75910.91;5066317;28;20073;-65
2023/06/29 05:49:30;;;;;;;28.00;14.60;;;;;;;-142.75;100.00;75920.75;5065980;28;20428;-64
2023/06/29 05:51:56;;;;;;;28.77;15.13;;;;;;;-142.75;100.00;75916.81;5066078;28;20025;-63
2023/06/29 05:54:21;;;;;;;32.13;15.35;;;;;;;-142.75;100.00;75914.84;5056209;28;20025;-65
2023/06/29 05:56:46;;;;;;;27.52;14.48;;;;;;;-142.75;100.00;75920.75;5066020;28;20021;-65
2023/06/29 05:59:12;;;;;;;25.88;13.63;;;;;;;-142.75;100.00;75905.00;5065080;28;20047;-63
2023/06/29 06:01:38;;;;;;;32.88;15.15;;;;;;;-142.75;100.00;75891.22;5065923;28;20518;-64
2023/06/29 06:04:03;;;;;;;24.85;14.85;;;;;;;-142.75;100.00;75889.25;5056406;28;20388;-64
2023/06/29 06:06:30;;;;;;;32.25;15.82;;;;;;;-142.75;100.00;75897.13;5045704;28;20036;-65
2023/06/29 06:08:56;;;;;;;33.53;16.75;;;;;;;-142.75;100.00;75893.19;5049386;28;20525;-64
2023/06/29 06:11:22;;;;;;;32.85;16.63;;;;;;;-142.75;100.00;75893.19;5057530;28;20119;-64
2023/06/29 06:13:47;;;;;;;30.88;16.08;;;;;;;-142.75;100.00;75899.09;5054030;28;20112;-64
2023/06/29 06:16:12;;;;;;;33.53;15.75;;;;;;;-142.75;100.00;75897.13;5056379;28;20447;-63
2023/06/29 06:18:38;;;;;;;34.88;17.40;;;;;;;-142.75;100.00;75906.97;5045953;28;20087;-64
2023/06/29 06:21:03;;;;;;;30.92;16.10;;;;;;;-142.75;100.00;75895.16;5065183;28;20039;-65
2023/06/29 06:23:28;;;;;;;33.97;16.45;;;;;;;-142.75;100.00;75893.19;5065183;28;20486;-66
2023/06/29 06:25:54;;;;;;;33.97;17.52;;;;;;;-142.75;100.00;75887.28;5055321;28;20523;-65
2023/06/29 06:28:20;;;;;;;32.40;16.92;;;;;;;-142.75;100.00;75883.34;5062795;28;20033;-64
2023/06/29 06:30:46;;;;;;;35.03;16.60;;;;;;;-142.75;100.00;75881.38;5065310;28;20066;-64
2023/06/29 06:33:12;;;;;;;40.35;18.60;;;;;;;-142.75;100.00;75887.28;5062208;28;20036;-63
2023/06/29 06:35:37;;;;;;;37.03;17.92;;;;;;;-142.75;100.00;75889.25;5044416;28;20030;-65
2023/06/29 06:38:03;;;;;;;33.22;17.83;;;;;;;-142.75;100.00;75877.44;5045361;28;20032;-65
2023/06/29 06:40:28;;;;;;;31.83;16.60;;;;;;;-142.75;100.00;75867.59;5044126;28;20400;-63
2023/06/29 06:42:53;;;;;;;34.60;17.10;;;;;;;-142.75;100.00;75873.50;5044879;28;20357;-63
2023/06/29 06:45:19;;;;;;;36.90;18.38;;;;;;;-142.75;100.00;75867.59;5045350;28;20029;-64
2023/06/29 06:47:44;;;;;;;27.88;15.98;;;;;;;-142.75;100.00;75863.66;5044942;28;20984;-63
2023/06/29 06:50:09;;;;;;;35.80;17.60;;;;;;;-142.75;100.00;75844.00;5044572;28;20539;-64
2023/06/29 06:52:35;;;;;;;36.15;17.58;;;;;;;-142.75;100.00;75834.16;5043702;28;20029;-64
2023/06/29 06:55:01;;;;;;;33.95;17.92;;;;;;;-142.75;100.00;75826.28;5039603;28;20850;-64
2023/06/29 06:57:26;;;;;;;34.30;17.15;;;;;;;-142.75;100.00;75844.00;5044384;28;20033;-64
2023/06/29 06:59:52;;;;;;;31.20;16.23;;;;;;;-142.75;100.00;75842.03;5043000;28;20103;-64
2023/06/29 07:02:17;;;;;;;32.45;17.27;;;;;;;-142.75;100.00;75824.31;5040449;28;20024;-65
2023/06/29 07:04:42;;;;;;;34.00;16.20;;;;;;;-142.75;100.00;75812.50;5043332;28;20079;-65
2023/06/29 07:07:08;;;;;;;29.17;15.75;;;;;;;-142.75;100.00;75814.47;5042837;28;20400;-65
2023/06/29 07:09:34;;;;;;;30.88;16.35;;;;;;;-142.75;100.00;75804.63;5040399;28;20029;-64
2023/06/29 07:11:59;;;;;;;34.00;17.10;;;;;;;-142.75;100.00;75814.47;5041739;28;20586;-64
2023/06/29 07:14:25;;;;;;;32.72;17.42;;;;;;;-142.75;100.00;75810.53;5043470;28;20029;-64
2023/06/29 07:16:51;;;;;;;29.05;15.27;;;;;;;-142.75;100.00;75810.53;5040904;28;20017;-64
2023/06/29 07:19:16;;;;;;;31.73;16.10;;;;;;;-142.75;100.00;75796.75;5041129;28;20100;-64
2023/06/29 07:21:42;;;;;;;37.08;18.90;;;;;;;-142.75;100.00;75810.53;5041463;28;20029;-65
2023/06/29 07:24:09;;;;;;;36.35;17.40;;;;;;;-142.75;100.00;75806.59;5043296;28;20051;-66
2023/06/29 07:26:35;;;;;;;33.17;18.75;;;;;;;-142.75;100.00;75798.72;5041869;28;20041;-65
2023/06/29 07:29:00;;;;;;;33.13;18.15;;;;;;;-142.75;100.00;75788.88;5042341;28;20053;-65
2023/06/29 07:31:27;;;;;;;32.10;17.58;;;;;;;-142.75;100.00;75786.91;5042489;28;20060;-65
2023/06/29 07:33:53;;;;;;;29.95;17.92;;;;;;;-142.75;100.00;75777.06;5042860;28;20118;-65
2023/06/29 07:36:20;;;;;;;29.25;16.88;;;;;;;-142.75;100.00;75767.22;5042177;28;20036;-64
2023/06/29 07:38:46;;;;;;;32.75;18.33;;;;;;;-142.75;100.00;75781.00;5043066;28;20384;-64
2023/06/29 07:41:11;;;;;;;28.20;16.60;;;;;;;-142.75;100.00;75779.03;5047992;28;20027;-66
2023/06/29 07:43:39;;;;;;;31.23;17.33;;;;;;;-142.75;100.00;75771.16;5049772;28;20066;-65
2023/06/29 07:46:04;;;;;;;29.15;16.40;;;;;;;-142.75;100.00;75761.34;5044830;28;20396;-64
2023/06/29 07:48:29;;;;;;;33.10;16.05;;;;;;;-142.75;100.00;75761.34;5041988;28;20028;-65
2023/06/29 07:50:55;;;;;;;34.28;16.40;;;;;;;-142.75;100.00;75755.44;5051821;28;20032;-64
2023/06/29 07:53:20;;;;;;;28.27;15.40;;;;;;;-142.75;100.00;75775.09;5067004;28;20451;-63
2023/06/29 07:55:46;;;;;;;29.25;16.15;;;;;;;-142.75;100.00;75775.09;5046519;28;20025;-64
2023/06/29 07:58:11;;;;;;;30.05;16.55;;;;;;;-142.75;100.00;75761.34;5045183;28;20036;-65
2023/06/29 08:00:37;;;;;;;29.25;15.55;;;;;;;-142.75;100.00;75755.44;5046636;28;20125;-64
2023/06/29 08:03:02;;;;;;;27.52;15.68;;;;;;;-142.75;100.00;75745.59;5046706;28;20044;-63
2023/06/29 08:05:27;;;;;;;30.30;16.10;;;;;;;-142.75;100.00;75753.47;5045965;28;20468;-63
2023/06/29 08:07:53;;;;;;;30.35;16.48;;;;;;;-142.75;100.00;75743.63;5047779;28;20512;-64
2023/06/29 08:10:18;;;;;;;29.13;16.02;;;;;;;-142.75;100.00;75757.41;5046929;28;20459;-64
2023/06/29 08:12:44;;;;;;;30.77;15.50;;;;;;;-142.75;100.00;75759.38;5047783;28;20561;-64
2023/06/29 08:15:10;;;;;;;26.10;15.32;;;;;;;-142.75;100.00;75735.75;5054301;28;20074;-62
2023/06/29 08:17:35;;;;;;;31.45;17.38;;;;;;;-142.75;100.00;75743.63;5067906;28;20028;-63
2023/06/29 08:20:00;;;;;;;29.23;16.17;;;;;;;-142.75;100.00;75733.78;5046978;28;20021;-63
2023/06/29 08:22:26;;;;;;;29.42;16.90;;;;;;;-142.75;100.00;75753.47;5047377;28;20130;-62
2023/06/29 08:24:51;;;;;;;33.25;16.63;;;;;;;-142.75;100.00;75739.69;5047767;28;20021;-63
2023/06/29 08:27:17;;;;;;;30.77;15.88;;;;;;;-142.75;100.00;75741.66;5048182;28;20460;-62
2023/06/29 08:29:43;;;;;;;25.95;15.23;;;;;;;-142.75;100.00;75739.69;5046941;28;20092;-63
2023/06/29 08:32:09;;;;;;;25.58;15.82;;;;;;;-142.75;100.00;75727.88;5048137;28;20595;-62
2023/06/29 08:34:34;;;;;;;29.92;15.40;;;;;;;-142.75;100.00;75712.13;5047593;28;20024;-63
2023/06/29 08:37:00;;;;;;;26.15;15.75;;;;;;;-142.75;100.00;75700.31;5047659;28;20507;-63
2023/06/29 08:39:26;;;;;;;26.23;15.98;;;;;;;-142.75;100.00;75718.03;5047470;28;20024;-63
2023/06/29 08:41:51;;;;;;;27.65;16.50;;;;;;;-142.75;100.00;75720.00;5050822;28;20028;-62
2023/06/29 08:44:17;;;;;;;27.45;16.13;;;;;;;-142.75;100.00;75727.88;5067586;28;20037;-62
2023/06/29 08:46:43;;;;;;;30.08;16.85;;;;;;;-142.75;100.00;75735.75;5067689;28;20388;-63
2023/06/29 08:49:10;;;;;;;29.88;15.95;;;;;;;-142.75;100.00;75747.56;5058572;28;20032;-63
2023/06/29 08:51:38;;;;;;;32.13;16.52;;;;;;;-142.75;100.00;75735.75;5051404;28;20131;-63
2023/06/29 08:54:06;;;;;;;32.20;16.88;;;;;;;-142.75;100.00;75739.69;5067114;28;20064;-63
2023/06/29 08:56:32;;;;;;;26.33;15.00;;;;;;;-142.75;100.00;75721.97;5067256;28;20678;-63
2023/06/29 08:58:58;;;;;;;29.80;16.60;;;;;;;-142.75;100.00;75727.88;5056474;28;20446;-63
2023/06/29 09:01:24;;;;;;;25.77;15.02;;;;;;;-142.75;100.00;75743.63;5047521;28;20017;-63
2023/06/29 09:03:51;;;;;;;28.45;15.57;;;;;;;-142.75;100.00;75745.59;5047215;28;20089;-63
2023/06/29 09:06:17;;;;;;;28.70;15.80;;;;;;;-142.75;100.00;75737.72;5046937;28;20091;-64
2023/06/29 09:08:42;;;;;;;27.25;15.55;;;;;;;-142.75;100.00;75727.88;5047086;28;20036;-64
2023/06/29 09:11:08;;;;;;;29.95;15.93;;;;;;;-142.75;100.00;75727.88;5047279;28;20021;-63
2023/06/29 09:13:33;;;;;;;26.17;15.18;;;;;;;-142.75;100.00;75708.19;5046991;28;20025;-63
2023/06/29 09:16:00;;;;;;;27.17;15.60;;;;;;;-142.75;100.00;75708.19;5047272;28;20033;-63
2023/06/29 09:18:27;;;;;;;29.90;15.63;;;;;;;-142.75;100.00;75712.13;5046949;28;20484;-63
2023/06/29 09:20:55;;;;;;;26.67;14.73;;;;;;;-142.75;100.00;75708.19;5046822;28;20132;-63
2023/06/29 09:23:21;;;;;;;30.73;16.10;;;;;;;-142.75;100.00;75702.28;5046916;28;20102;-63
2023/06/29 09:25:49;;;;;;;25.80;14.60;;;;;;;-142.75;100.00;75684.56;5046880;28;20112;-62
2023/06/29 09:28:15;;;;;;;27.13;15.02;;;;;;;-142.75;100.00;75657.03;5047379;28;20029;-62
2023/06/29 09:30:41;;;;;;;27.98;14.93;;;;;;;-142.75;100.00;75653.09;5046957;28;20035;-62
2023/06/29 09:33:11;;;;;;;23.88;13.85;;;;;;;-142.75;100.00;75613.72;5046479;28;20033;-63
2023/06/29 09:35:40;;;;;;;26.48;13.90;;;;;;;-142.75;100.00;75576.34;5045594;28;20029;-63
2023/06/29 09:38:06;;;;;;;24.73;14.20;;;;;;;-142.75;100.00;75560.59;5046707;28;20067;-63
2023/06/29 09:40:45;;;;;;;23.45;13.75;;;;;;;-142.75;100.00;75556.66;5046400;28;20056;-63
2023/06/29 09:43:18;;;;;;;23.30;12.45;;;;;;;-142.75;100.00;75517.28;5045140;28;20052;-64
2023/06/29 09:45:43;;;;;;;23.48;13.25;;;;;;;-142.75;100.00;75538.94;5046304;28;20029;-63
2023/06/29 09:48:12;;;;;;;22.92;13.20;;;;;;;-142.75;100.00;75535.00;5046810;28;20027;-62
2023/06/29 09:50:40;;;;;;;21.75;12.68;;;;;;;-142.75;100.00;75489.75;5046302;28;20087;-62
2023/06/29 09:53:09;;;;;;;22.67;12.15;;;;;;;-142.75;100.00;75444.47;5046278;28;20045;-62
2023/06/29 09:55:36;;;;;;;22.75;12.38;;;;;;;-142.75;100.00;75444.47;5046018;28;20424;-60
2023/06/29 09:58:02;;;;;;;18.52;11.25;;;;;;;-142.75;100.00;75458.25;5046520;28;20016;-61
2023/06/29 10:00:32;;;;;;;23.33;12.20;;;;;;;-142.75;100.00;75450.38;5046359;28;20574;-61
2023/06/29 10:02:58;;;;;;;18.67;10.80;;;;;;;-142.75;100.00;75460.22;5045899;28;20412;-62
2023/06/29 10:05:23;;;;;;;19.52;11.65;;;;;;;-142.75;100.00;75503.53;5046335;28;20033;-62
2023/06/29 10:07:53;;;;;;;18.88;11.27;;;;;;;-142.75;100.00;75456.28;5060386;28;20024;-62
2023/06/29 10:10:20;;;;;;;17.45;10.38;;;;;;;-142.75;100.00;75432.69;5065761;28;20029;-62
2023/06/29 10:12:50;;;;;;;17.00;9.80;;;;;;;-142.75;100.00;75385.44;5065562;28;20024;-62
2023/06/29 10:15:18;;;;;;;18.08;9.85;;;;;;;-142.75;100.00;75395.28;5062785;28;20036;-62
2023/06/29 10:17:46;;;;;;;18.38;10.30;;;;;;;-142.75;100.00;75399.22;5062277;28;20024;-61
2023/06/29 10:20:14;;;;;;;18.25;10.45;;;;;;;-142.75;100.00;75420.88;5065614;28;20032;-62
2023/06/29 10:22:41;;;;;;;18.85;10.00;;;;;;;-142.75;100.00;75442.50;5065588;28;20024;-61
2023/06/29 10:25:09;;;;;;;15.60;8.80;;;;;;;-142.75;100.00;75475.97;5065515;28;20047;-61
2023/06/29 10:27:35;;;;;;;16.05;8.07;;;;;;;-142.75;100.00;75507.47;5064793;28;20404;-62
2023/06/29 10:30:06;;;;;;;12.82;7.40;;;;;;;-142.75;100.00;75515.31;5045897;28;20052;-61
2023/06/29 10:32:35;;;;;;;14.05;7.07;;;;;;;-142.75;100.00;75523.19;5045418;28;20020;-62
2023/06/29 10:35:08;;;;;;;14.30;7.95;;;;;;;-142.75;100.00;75536.97;5044293;28;20032;-62
2023/06/29 10:37:36;;;;;;;12.18;7.05;;;;;;;-142.75;100.00;75527.13;5045610;28;20539;-62
2023/06/29 10:40:05;;;;;;;13.10;7.20;;;;;;;-142.75;100.00;75560.59;5045400;28;20028;-62
2023/06/29 10:42:33;;;;;;;12.50;7.10;;;;;;;-142.75;100.00;75544.84;5064256;28;20544;-62
2023/06/29 10:44:58;;;;;;;16.13;7.63;;;;;;;-142.75;100.00;75550.75;5065668;28;20111;-62
2023/06/29 10:47:25;;;;;;;11.95;6.72;;;;;;;-142.75;100.00;75519.25;5066026;28;20456;-62
2023/06/29 10:50:14;;;;;;;12.38;7.25;;;;;;;-142.75;100.00;75464.16;5066277;28;20039;-62